Ryosui — JD4228 — position and weather

sailwx.info

Track history (hours):
 
Tides and Currents Weather Stations Pressure Air Temp Water Temp Dewpoint Dewpoint Depression Visibility Wind Speed Wind Dir Waves Ship Positions

Ryosui

Last reported at 2017-Oct-19 05:19 UTC. Time now 2017-Oct-20 01:23 UTC.
Position N 35°33' E 140°05'.

Length 67 m; draft 4.8 m.

Type: Tanker. MMSI: 431009833.

Date/timePositionNaut miles runAvg speedWind from/ knotsBaromVisibWave heightAir tempDewpointWater temp
2017-Oct-19 05:19N 35°33' E 140°05'3 6.4
2017-Oct-19 04:47N 35°34' E 140°01'3 0.4
2017-Oct-18 20:57N 35°32' E 139°58'512.0
2017-Oct-18 20:30N 35°29' E 139°53'611.9
2017-Oct-18 20:00N 35°25' E 139°47'612.0
2017-Oct-18 19:30N 35°20' E 139°44'611.9
2017-Oct-18 19:00N 35°14' E 139°47'612.6
2017-Oct-18 18:30N 35°08' E 139°45'612.9
2017-Oct-18 18:00N 35°02' E 139°43'710.4
2017-Oct-18 17:19N 34°55' E 139°45'14 0.5
2017-Oct-17 12:34N 34°55' E 140°02'1 9.3
2017-Oct-17 12:28N 34°55' E 140°01'8 9.5
2017-Oct-17 11:37N 34°51' E 139°53'2 9.5
2017-Oct-17 11:26N 34°51' E 139°51'244 5.2
2017-Oct-15 12:37N 34°05' E 134°59'213.1
2017-Oct-15 12:27N 34°08' E 134°59'613.2
2017-Oct-15 12:00N 34°13' E 134°59'812.6
2017-Oct-15 11:23N 34°21' E 134°60'512.6
2017-Oct-15 10:57N 34°25' E 135°04'510.9
2017-Oct-15 10:30N 34°30' E 135°04'611.3
2017-Oct-15 09:59N 34°36' E 135°03'8 0.2
2017-Oct-13 15:22N 34°35' E 134°53'3 7.8
2017-Oct-13 14:58N 34°37' E 134°57'5 8.9
2017-Oct-13 14:25N 34°37' E 135°02'4 9.1
2017-Oct-13 14:00N 34°33' E 135°05'712.6
2017-Oct-13 13:29N 34°27' E 135°03'1411.7
2017-Oct-13 12:19N 34°13' E 134°60'411.5
2017-Oct-13 12:00N 34°10' E 134°60'  
2017-Oct-10 10:58N 34°07' E 134°59'612.8
2017-Oct-10 10:29N 34°13' E 134°59'1112.8
2017-Oct-10 09:36N 34°24' E 134°60'112.9
2017-Oct-10 09:31N 34°25' E 135°00'612.3
2017-Oct-10 09:00N 34°31' E 135°02'611.3
2017-Oct-10 08:30N 34°37' E 135°01'  
Track history (hours):
 
Tides and Currents Weather Stations Pressure Air Temp Water Temp Dewpoint Dewpoint Depression Visibility Wind Speed Wind Dir Waves Ship Positions

Ryosui

Last reported at 2017-Oct-19 05:19 UTC. Time now 2017-Oct-20 01:23 UTC.
Position N 35°33' E 140°05'.

Length 67 m; draft 4.8 m.

Type: Tanker. MMSI: 431009833.

Date/timePositionNaut miles runAvg speedWind from/ knotsBaromVisibWave heightAir tempDewpointWater temp
2017-Oct-19 05:19N 35°33' E 140°05'3 6.4
2017-Oct-19 04:47N 35°34' E 140°01'3 0.4
2017-Oct-18 20:57N 35°32' E 139°58'512.0
2017-Oct-18 20:30N 35°29' E 139°53'611.9
2017-Oct-18 20:00N 35°25' E 139°47'612.0
2017-Oct-18 19:30N 35°20' E 139°44'611.9
2017-Oct-18 19:00N 35°14' E 139°47'612.6
2017-Oct-18 18:30N 35°08' E 139°45'612.9
2017-Oct-18 18:00N 35°02' E 139°43'710.4
2017-Oct-18 17:19N 34°55' E 139°45'14 0.5
2017-Oct-17 12:34N 34°55' E 140°02'1 9.3
2017-Oct-17 12:28N 34°55' E 140°01'8 9.5
2017-Oct-17 11:37N 34°51' E 139°53'2 9.5
2017-Oct-17 11:26N 34°51' E 139°51'244 5.2
2017-Oct-15 12:37N 34°05' E 134°59'213.1
2017-Oct-15 12:27N 34°08' E 134°59'613.2
2017-Oct-15 12:00N 34°13' E 134°59'812.6
2017-Oct-15 11:23N 34°21' E 134°60'512.6
2017-Oct-15 10:57N 34°25' E 135°04'510.9
2017-Oct-15 10:30N 34°30' E 135°04'611.3
2017-Oct-15 09:59N 34°36' E 135°03'8 0.2
2017-Oct-13 15:22N 34°35' E 134°53'3 7.8
2017-Oct-13 14:58N 34°37' E 134°57'5 8.9
2017-Oct-13 14:25N 34°37' E 135°02'4 9.1
2017-Oct-13 14:00N 34°33' E 135°05'712.6
2017-Oct-13 13:29N 34°27' E 135°03'1411.7
2017-Oct-13 12:19N 34°13' E 134°60'411.5
2017-Oct-13 12:00N 34°10' E 134°60'  
2017-Oct-10 10:58N 34°07' E 134°59'612.8
2017-Oct-10 10:29N 34°13' E 134°59'1112.8
2017-Oct-10 09:36N 34°24' E 134°60'112.9
2017-Oct-10 09:31N 34°25' E 135°00'612.3
2017-Oct-10 09:00N 34°31' E 135°02'611.3
2017-Oct-10 08:30N 34°37' E 135°01'  

Dump ship's entire track history